Flight Track Log - Related Links

Times and Time Zones

All times are in EDT time to prevent confusion due to time zone crossing. See the AWE50 flight status page for this flight to view local times or setup timezone preferences in your user account.

Time Position Orientation Groundspeed Altitude Reporting Facility
EDT Latitude Longitude Course Direction KTS MPH feet Rate Location/Type
Mon 03:22:34 AM 33.4320 -112.0170 270° West 24 28  Level FlightAware ADS-B
Mon 03:24:06 AM 33.4310 -112.0260 262° West 19 22 1,059 Level FlightAware ADS-B
Mon 03:25:41 AM 33.4340 -111.9650 87° East 190 219 3,300 1,909 Climbing FlightAware ADS-B
Mon 03:25:56 AM 33.4350 -111.9460 86° East 212 244 3,500 1,143 Climbing FlightAware ADS-B
Mon 03:26:23 AM 33.4380 -111.9160 83° East 236 272 4,100 1,500 Climbing FlightAware ADS-B
Mon 03:26:52 AM 33.4420 -111.8730 84° East 267 307 4,900 1,610 Climbing FlightAware ADS-B
Mon 03:27:04 AM 33.4470 -111.8590 67° East 276 318 5,200 2,000 Climbing FlightAware ADS-B
Mon 03:27:16 AM 33.4590 -111.8430 48° Northeast 289 333 5,700 2,769 Climbing FlightAware ADS-B
Mon 03:27:30 AM 33.4760 -111.8340 24° Northeast 286 329 6,400 3,209 Climbing FlightAware ADS-B
Mon 03:27:59 AM 33.5130 -111.8280 North 273 314 8,000 2,947 Climbing FlightAware ADS-B
Mon 03:28:27 AM 33.5480 -111.8220 North 274 315 9,200 2,167 Climbing FlightAware ADS-B
Mon 03:29:11 AM 33.6060 -111.8110 North 300 345 10,600 1,482 Climbing FlightAware ADS-B
Mon 03:29:52 AM 33.6670 -111.8000 North 342 394 11,300 1,263 Climbing FlightAware ADS-B
Mon 03:30:27 AM 33.7240 -111.7900 North 368 423 12,200 1,923 Climbing FlightAware ADS-B
Mon 03:31:10 AM 33.7980 -111.7760 North 380 437 13,800 2,023 Climbing FlightAware ADS-B
Mon 03:31:53 AM 33.8730 -111.7620 North 394 453 15,100 1,846 Climbing FlightAware ADS-B
Mon 03:32:28 AM 33.9380 -111.7500 North 405 466 16,200 1,840 Climbing FlightAware ADS-B
Mon 03:33:08 AM 34.0130 -111.7360 North 418 481 17,400 1,714 Climbing FlightAware ADS-B
Mon 03:33:52 AM 34.0970 -111.7110 14° North 432 497 18,600 1,694 Climbing FlightAware ADS-B
Mon 03:34:33 AM 34.1770 -111.6790 18° North 442 509 19,800 1,537 Climbing FlightAware ADS-B
Mon 03:35:14 AM 34.2570 -111.6480 18° North 455 524 20,700 1,482 Climbing FlightAware ADS-B
Mon 03:35:58 AM 34.3360 -111.5920 30° Northeast 461 531 21,900 1,571 Climbing FlightAware ADS-B
Mon 03:36:38 AM 34.4010 -111.5210 42° Northeast 468 539 22,900 1,446 Climbing FlightAware ADS-B
Mon 03:37:21 AM 34.4700 -111.4470 41° Northeast 472 543 23,900 1,446 Climbing FlightAware ADS-B
Mon 03:38:01 AM 34.5370 -111.3740 42° Northeast 475 547 24,900 1,286 Climbing FlightAware ADS-B
Mon 03:38:45 AM 34.6110 -111.2930 42° Northeast 484 557 25,700 857 Climbing FlightAware ADS-B
Mon 03:39:25 AM 34.6770 -111.2190 43° Northeast 497 572 26,100 714 Climbing FlightAware ADS-B
Mon 03:40:09 AM 34.7530 -111.1330 43° Northeast 507 583 26,700 628 Climbing FlightAware ADS-B
Mon 03:40:51 AM 34.8250 -111.0520 43° Northeast 519 597 27,000 714 Climbing FlightAware ADS-B
Mon 03:41:33 AM 34.8990 -110.9680 43° Northeast 521 600 27,700 951 Climbing FlightAware ADS-B
Mon 03:42:13 AM 34.9690 -110.8870 43° Northeast 523 602 28,300 971 Climbing FlightAware ADS-B
Mon 03:42:41 AM 35.0200 -110.8290 43° Northeast 524 603 28,800 706 Climbing FlightAware ADS-B
Mon 03:43:21 AM 35.0890 -110.7500 43° Northeast 519 597 29,100 837 Climbing FlightAware ADS-B
Mon 03:44:07 AM 35.1670 -110.6610 43° Northeast 515 593 30,000 1,275 Climbing FlightAware ADS-B
Mon 03:44:41 AM 35.2300 -110.5890 43° Northeast 512 589 30,800 1,080 Climbing FlightAware ADS-B
Mon 03:44:57 AM 35.2570 -110.5570 44° Northeast 515 593 30,900 811 Climbing FlightAware ADS-B
Mon 03:45:55 AM 35.3590 -110.4400 43° Northeast 516 594 31,800 1,020 Climbing FlightAware ADS-B
Mon 03:46:37 AM 35.4310 -110.3560 44° Northeast 513 590 32,600 818 Climbing FlightAware ADS-B
Mon 03:47:23 AM 35.5080 -110.2660 44° Northeast 500 575 33,000 279 Climbing FlightAware ADS-B
Mon 03:48:03 AM 35.5770 -110.1860 43° Northeast 500 575 33,000  Level FlightAware ADS-B
Mon 03:48:43 AM 35.6430 -110.1100 43° Northeast 501 577 33,000  Level FlightAware ADS-B
Mon 03:49:29 AM 35.7210 -110.0180 44° Northeast 499 574 33,000  Level FlightAware ADS-B
Mon 03:50:09 AM 35.7870 -109.9410 43° Northeast 500 575 33,000  Level FlightAware ADS-B
Mon 03:50:51 AM 35.8590 -109.8560 44° Northeast 500 575 33,000  Level FlightAware ADS-B
Mon 03:51:27 AM 35.9160 -109.7880 44° Northeast 501 577 33,000  Level FlightAware ADS-B
Mon 03:52:26 AM 36.0080 -109.6820 43° Northeast 503 579 33,000  Level FlightAware ADS-B
Mon 03:53:02 AM 36.0600 -109.6220 43° Northeast 503 579 33,000  Level FlightAware ADS-B
Mon 03:53:39 AM 36.1130 -109.5600 43° Northeast 503 579 33,000  Level FlightAware ADS-B
Mon 03:54:27 AM 36.1830 -109.4800 43° Northeast 503 579 33,000  Level FlightAware ADS-B
Mon 03:55:03 AM 36.2350 -109.4200 43° Northeast 503 579 33,000  Level FlightAware ADS-B
Mon 03:55:51 AM 36.3040 -109.3390 43° Northeast 503 579 33,000  Level FlightAware ADS-B
Mon 03:56:27 AM 36.3560 -109.2790 43° Northeast 503 579 33,000  Level FlightAware ADS-B
Mon 03:57:03 AM 36.4080 -109.2190 43° Northeast 503 579 33,000  Level FlightAware ADS-B
Mon 03:57:52 AM 36.4790 -109.1360 43° Northeast 503 579 33,000  Level FlightAware ADS-B
Mon 03:58:28 AM 36.5310 -109.0760 43° Northeast 503 579 33,000 3,429 Level FlightAware ADS-B
Mon 03:59:02 AM 36.6750 -108.8790 48° Northeast 498 573 37,000 2,857 Climbing FlightAware ADS-B
Mon 03:59:52 AM 36.7630 -108.7730 44° Northeast 500 575 37,000  Level FlightAware ADS-B
Mon 04:00:29 AM 36.8160 -108.7080 44° Northeast 501 577 37,000  Level FlightAware ADS-B
Mon 04:01:08 AM 36.8910 -108.6160 44° Northeast 503 579 37,000  Level FlightAware ADS-B
Mon 04:01:48 AM 36.9570 -108.5350 44° Northeast 504 580 37,000  Level FlightAware ADS-B
Mon 04:02:33 AM 37.0320 -108.4430 44° Northeast 504 580 37,000  Level FlightAware ADS-B
Mon 04:03:14 AM 37.1010 -108.3580 44° Northeast 504 580 37,000  Level FlightAware ADS-B
Mon 04:03:59 AM 37.1760 -108.2660 44° Northeast 504 580 37,000  Level FlightAware ADS-B
Mon 04:04:40 AM 37.2440 -108.1810 45° Northeast 506 582 37,000  Level FlightAware ADS-B
Mon 04:05:20 AM 37.3100 -108.0980 45° Northeast 511 588 37,000  Level FlightAware ADS-B
Mon 04:06:05 AM 37.3860 -108.0040 44° Northeast 510 587 37,000  Level FlightAware ADS-B
Mon 04:06:46 AM 37.4540 -107.9190 45° Northeast 505 581 37,000  Level FlightAware ADS-B
Mon 04:07:17 AM 37.5060 -107.8550 44° Northeast 507 583 37,000  Level FlightAware ADS-B
Mon 04:07:57 AM 37.5720 -107.7710 45° Northeast 508 585 37,000  Level FlightAware ADS-B
Mon 04:08:38 AM 37.6400 -107.6850 45° Northeast 509 586 37,000  Level FlightAware ADS-B
Mon 04:09:18 AM 37.7080 -107.6000 45° Northeast 509 586 37,000  Level FlightAware ADS-B
Mon 04:10:03 AM 37.7820 -107.5060 45° Northeast 508 585 37,000  Level FlightAware ADS-B
Mon 04:10:43 AM 37.8470 -107.4230 45° Northeast 508 585 37,000  Level FlightAware ADS-B
Mon 04:11:33 AM 37.9310 -107.3160 45° Northeast 509 586 37,000  Level FlightAware ADS-B
Mon 04:12:18 AM 38.0060 -107.2210 45° Northeast 509 586 37,000  Level FlightAware ADS-B
Mon 04:13:03 AM 38.0813 -107.1240 45° Northeast 37,000  Level FlightAware ADS-B
Mon 04:13:33 AM 38.1320 -107.0590 45° Northeast 511 588 37,000  Level FlightAware ADS-B
Mon 04:14:05 AM 38.1839 -106.9920 45° Northeast 512 589 37,000  Level FlightAware ADS-B
Mon 04:15:12 AM 38.2959 -106.8470 45° Northeast 511 588 37,000  Level FlightAware ADS-B
Mon 04:15:42 AM 38.3458 -106.7820 46° Northeast 511 588 37,000  Level FlightAware ADS-B
Mon 04:16:12 AM 38.3957 -106.7170 46° Northeast 511 588 37,000  Level FlightAware ADS-B
Mon 04:16:42 AM 38.4453 -106.6530 45° Northeast 511 588 37,000  Level FlightAware ADS-B
Mon 04:17:23 AM 38.5116 -106.5660 46° Northeast 510 587 37,000  Level FlightAware ADS-B
Mon 04:17:53 AM 38.5618 -106.5010 45° Northeast 510 587 37,000  Level FlightAware ADS-B
Mon 04:18:23 AM 38.6100 -106.4370 46° Northeast 510 587 37,000  Level FlightAware ADS-B
Mon 04:18:51 AM 38.6577 -106.3750 45° Northeast 512 589 37,000  Level FlightAware ADS-B
Mon 04:19:21 AM 38.7072 -106.3090 46° Northeast 513 590 37,000  Level FlightAware ADS-B
Mon 04:19:51 AM 38.7568 -106.2440 46° Northeast 514 592 37,000  Level FlightAware ADS-B
Mon 04:20:22 AM 38.8067 -106.1780 46° Northeast 511 588 37,000  Level FlightAware ADS-B
Mon 04:20:54 AM 38.8595 -106.1080 46° Northeast 509 586 37,000  Level FlightAware ADS-B
Mon 04:21:31 AM 38.9198 -106.0280 46° Northeast 508 585 37,000  Level FlightAware ADS-B
Mon 04:22:01 AM 38.9695 -105.9610 46° Northeast 508 585 37,000  Level FlightAware ADS-B
Mon 04:22:31 AM 39.0184 -105.8960 46° Northeast 508 585 37,000  Level FlightAware ADS-B
Mon 04:23:02 AM 39.0686 -105.8290 46° Northeast 507 583 37,000  Level FlightAware ADS-B
Mon 04:23:32 AM 39.1179 -105.7630 46° Northeast 508 585 37,000  Level FlightAware ADS-B
Mon 04:24:03 AM 39.1678 -105.6960 46° Northeast 507 583 37,000  Level FlightAware ADS-B
Mon 04:24:33 AM 39.2167 -105.6300 46° Northeast 506 582 37,000  Level FlightAware ADS-B
Mon 04:25:04 AM 39.2662 -105.5630 46° Northeast 506 582 37,000  Level FlightAware ADS-B
Mon 04:25:35 AM 39.3157 -105.4960 46° Northeast 509 586 37,000  Level FlightAware ADS-B
Mon 04:26:05 AM 39.3651 -105.4290 46° Northeast 511 588 37,000  Level FlightAware ADS-B
Mon 04:26:36 AM 39.4153 -105.3610 46° Northeast 513 590 37,000  Level FlightAware ADS-B
Mon 04:27:06 AM 39.4655 -105.2930 46° Northeast 514 592 37,000  Level FlightAware ADS-B
Mon 04:27:37 AM 39.5150 -105.2250 47° Northeast 513 590 37,000  Level FlightAware ADS-B
Mon 04:28:07 AM 39.5646 -105.1570 47° Northeast 511 588 37,000  Level FlightAware ADS-B
Mon 04:28:37 AM 39.6133 -105.0910 46° Northeast 510 587 37,000  Level FlightAware ADS-B
Mon 04:29:08 AM 39.6631 -105.0220 47° Northeast 511 588 37,000  Level FlightAware ADS-B
Mon 04:29:38 AM 39.7125 -104.9540 47° Northeast 512 589 37,000  Level FlightAware ADS-B
Mon 04:30:08 AM 39.7613 -104.8870 47° Northeast 512 589 37,000  Level FlightAware ADS-B
Mon 04:30:39 AM 39.8100 -104.8190 47° Northeast 507 583 37,000  Level FlightAware ADS-B
Mon 04:31:09 AM 39.8577 -104.7530 47° Northeast 499 574 37,000  Level FlightAware ADS-B
Mon 04:31:39 AM 39.9052 -104.6880 46° Northeast 498 573 37,000  Level FlightAware ADS-B
Mon 04:32:09 AM 39.9530 -104.6210 47° Northeast 499 574 37,000  Level FlightAware ADS-B
Mon 04:32:42 AM 40.0042 -104.5490 47° Northeast 497 572 37,000  Level FlightAware ADS-B
Mon 04:33:12 AM 40.0524 -104.4820 47° Northeast 499 574 37,000  Level FlightAware ADS-B
Mon 04:33:43 AM 40.0998 -104.4150 47° Northeast 500 575 37,000  Level FlightAware ADS-B
Mon 04:34:13 AM 40.1474 -104.3480 47° Northeast 500 575 37,000  Level FlightAware ADS-B
Mon 04:34:43 AM 40.1953 -104.2810 47° Northeast 500 575 37,000  Level FlightAware ADS-B
Mon 04:35:14 AM 40.2431 -104.2130 47° Northeast 500 575 37,000  Level FlightAware ADS-B
Mon 04:35:44 AM 40.2906 -104.1460 47° Northeast 501 577 37,000  Level FlightAware ADS-B
Mon 04:36:14 AM 40.3378 -104.0800 47° Northeast 502 578 37,000  Level FlightAware ADS-B
Mon 04:36:44 AM 40.3853 -104.0120 47° Northeast 501 577 37,000  Level FlightAware ADS-B
Mon 04:37:15 AM 40.4334 -103.9430 48° Northeast 502 578 37,000  Level FlightAware ADS-B
Mon 04:37:46 AM 40.4817 -103.8750 47° Northeast 502 578 37,000  Level FlightAware ADS-B
Mon 04:38:16 AM 40.5298 -103.8060 47° Northeast 502 578 37,000  Level FlightAware ADS-B
Mon 04:38:47 AM 40.5776 -103.7370 48° Northeast 501 577 37,000  Level FlightAware ADS-B
Mon 04:39:17 AM 40.6247 -103.6700 47° Northeast 502 578 37,000  Level FlightAware ADS-B
Mon 04:39:47 AM 40.6720 -103.6020 47° Northeast 501 577 37,000  Level FlightAware ADS-B
Mon 04:40:19 AM 40.7217 -103.5300 48° Northeast 501 577 37,000  Level FlightAware ADS-B
Mon 04:40:49 AM 40.7688 -103.4620 48° Northeast 500 575 37,000  Level FlightAware ADS-B
Mon 04:41:19 AM 40.8154 -103.3940 48° Northeast 499 574 37,000  Level FlightAware ADS-B
Mon 04:41:49 AM 40.8620 -103.3260 48° Northeast 498 573 37,000  Level FlightAware ADS-B
Mon 04:42:19 AM 40.9086 -103.2590 47° Northeast 499 574 37,000  Level FlightAware ADS-B
Mon 04:42:49 AM 40.9551 -103.1910 48° Northeast 500 575 37,000  Level FlightAware ADS-B
Mon 04:43:19 AM 41.0019 -103.1220 48° Northeast 500 575 37,000  Level FlightAware ADS-B
Mon 04:43:51 AM 41.0516 -103.0490 48° Northeast 500 575 37,000  Level FlightAware ADS-B
Mon 04:44:11 AM 41.0804 -103.0040 50° Northeast 500 575 37,000  Level FlightAware ADS-B
Mon 04:44:30 AM 41.1066 -102.9580 53° Northeast 501 577 37,000  Level FlightAware ADS-B
Mon 04:45:00 AM 41.1440 -102.8790 58° Northeast 501 577 37,000  Level FlightAware ADS-B
Mon 04:45:30 AM 41.1801 -102.8000 59° Northeast 501 577 37,000  Level FlightAware ADS-B
Mon 04:46:00 AM 41.2163 -102.7200 59° Northeast 501 577 37,000  Level FlightAware ADS-B
Mon 04:46:34 AM 41.2564 -102.6310 59° Northeast 502 578 37,000  Level FlightAware ADS-B
Mon 04:47:04 AM 41.2926 -102.5510 59° Northeast 503 579 37,000  Level FlightAware ADS-B
Mon 04:47:35 AM 41.3288 -102.4700 59° Northeast 504 580 37,000  Level FlightAware ADS-B
Mon 04:48:05 AM 41.3652 -102.3890 59° Northeast 505 581 37,000  Level FlightAware ADS-B
Mon 04:48:35 AM 41.4011 -102.3090 59° Northeast 506 582 37,000  Level FlightAware ADS-B
Mon 04:49:05 AM 41.4370 -102.2280 59° Northeast 507 583 37,000  Level FlightAware ADS-B
Mon 04:49:36 AM 41.4728 -102.1480 59° Northeast 506 582 37,000  Level FlightAware ADS-B
Mon 04:50:06 AM 41.5088 -102.0670 59° Northeast 506 582 37,000  Level FlightAware ADS-B
Mon 04:50:36 AM 41.5447 -101.9850 60° Northeast 507 583 37,000  Level FlightAware ADS-B
Mon 04:51:06 AM 41.5804 -101.9040 59° Northeast 506 582 37,000  Level FlightAware ADS-B
Mon 04:51:39 AM 41.6196 -101.8150 59° Northeast 506 582 37,000  Level FlightAware ADS-B
Mon 04:52:09 AM 41.6552 -101.7340 60° Northeast 507 583 37,000  Level FlightAware ADS-B
Mon 04:52:39 AM 41.6910 -101.6520 60° Northeast 509 586 37,000  Level FlightAware ADS-B
Mon 04:53:10 AM 41.7268 -101.5700 60° Northeast 509 586 37,000  Level FlightAware ADS-B
Mon 04:53:40 AM 41.7627 -101.4870 60° Northeast 511 588 37,000  Level FlightAware ADS-B
Mon 04:54:10 AM 41.7983 -101.4050 60° Northeast 512 589 37,000  Level FlightAware ADS-B
Mon 04:54:40 AM 41.8345 -101.3210 60° Northeast 513 590 37,000  Level FlightAware ADS-B
Mon 04:55:11 AM 41.8703 -101.2380 60° Northeast 513 590 37,000  Level FlightAware ADS-B
Mon 04:56:15 AM 41.9397 -101.0781 60° Northeast 513 590 37,000  Level Denver Center
Mon 05:02:13 AM 42.3713 -100.0510 60° Northeast 526 605 37,000  Level FlightAware ADS-B
Mon 05:02:44 AM 42.4080 -99.9625 61° Northeast 526 605 37,000  Level FlightAware ADS-B
Mon 05:03:14 AM 42.4440 -99.8749 61° Northeast 526 605 37,000  Level FlightAware ADS-B
Mon 05:03:44 AM 42.4797 -99.7879 61° Northeast 527 606 37,000  Level FlightAware ADS-B
Mon 05:04:15 AM 42.5154 -99.7006 61° Northeast 526 605 37,000  Level FlightAware ADS-B
Mon 05:04:45 AM 42.5511 -99.6130 61° Northeast 526 605 37,000  Level FlightAware ADS-B
Mon 05:05:15 AM 42.5863 -99.5264 61° Northeast 526 605 37,000  Level FlightAware ADS-B
Mon 05:05:46 AM 42.6223 -99.4378 61° Northeast 525 604 37,000  Level FlightAware ADS-B
Mon 05:06:28 AM 42.6716 -99.3158 61° Northeast 525 604 37,000  Level FlightAware ADS-B
Mon 05:07:21 AM 42.7339 -99.1609 61° Northeast 526 605 37,000  Level FlightAware ADS-B
Mon 05:07:52 AM 42.7695 -99.0720 61° Northeast 527 606 37,000  Level FlightAware ADS-B
Mon 05:08:22 AM 42.8044 -98.9846 61° Northeast 528 608 37,000  Level FlightAware ADS-B
Mon 05:08:52 AM 42.8392 -98.8972 61° Northeast 527 606 37,000  Level FlightAware ADS-B
Mon 05:09:22 AM 42.8741 -98.8089 62° Northeast 526 605 37,000  Level FlightAware ADS-B
Mon 05:09:53 AM 42.9093 -98.7201 62° Northeast 524 603 37,000  Level FlightAware ADS-B
Mon 05:10:27 AM 42.9482 -98.6215 62° Northeast 524 603 37,000  Level FlightAware ADS-B
Mon 05:10:57 AM 42.9830 -98.5328 62° Northeast 525 604 37,000  Level FlightAware ADS-B
Mon 05:11:33 AM 43.0240 -98.4281 62° Northeast 525 604 37,000  Level FlightAware ADS-B
Mon 05:12:04 AM 43.0591 -98.3382 62° Northeast 524 603 37,000  Level FlightAware ADS-B
Mon 05:12:35 AM 43.0948 -98.2468 62° Northeast 524 603 37,000  Level FlightAware ADS-B
Mon 05:13:06 AM 43.1293 -98.1575 62° Northeast 526 605 37,000  Level FlightAware ADS-B
Mon 05:13:32 AM 43.1581 -98.0808 63° Northeast 527 606 37,000  Level FlightAware ADS-B
Mon 05:14:02 AM 43.1886 -97.9887 66° East 526 605 37,000  Level FlightAware ADS-B
Mon 05:14:32 AM 43.2200 -97.8974 65° Northeast 527 606 37,000  Level FlightAware ADS-B
Mon 05:15:03 AM 43.2522 -97.8043 65° Northeast 527 606 37,000  Level FlightAware ADS-B
Mon 05:15:33 AM 43.2839 -97.7126 65° Northeast 527 606 37,000  Level FlightAware ADS-B
Mon 05:16:04 AM 43.3152 -97.6215 65° Northeast 528 608 37,000  Level FlightAware ADS-B
Mon 05:16:34 AM 43.3463 -97.5304 65° Northeast 528 608 37,000  Level FlightAware ADS-B
Mon 05:17:04 AM 43.3774 -97.4396 65° Northeast 527 606 37,000  Level FlightAware ADS-B
Mon 05:18:18 AM 43.4542 -97.2134 65° Northeast 527 606 37,000  Level FlightAware ADS-B
Mon 05:19:33 AM 43.5306 -96.9871 65° Northeast 528 608 37,000  Level FlightAware ADS-B
Mon 05:20:27 AM 43.5865 -96.8222 65° Northeast 525 604 37,000  Level FlightAware ADS-B
Mon 05:20:57 AM 43.6174 -96.7307 65° Northeast 523 602 37,000  Level FlightAware ADS-B
Mon 05:21:36 AM 43.6567 -96.6152 65° Northeast 521 600 37,000  Level FlightAware ADS-B
Mon 05:22:07 AM 43.6884 -96.5219 65° Northeast 520 598 37,000  Level FlightAware ADS-B
Mon 05:22:37 AM 43.7192 -96.4314 65° Northeast 518 596 37,000  Level FlightAware ADS-B
Mon 05:23:07 AM 43.7500 -96.3412 65° Northeast 516 594 37,000  Level FlightAware ADS-B
Mon 05:23:38 AM 43.7806 -96.2511 65° Northeast 514 592 37,000  Level FlightAware ADS-B
Mon 05:24:08 AM 43.8109 -96.1621 65° Northeast 512 589 37,000  Level FlightAware ADS-B
Mon 05:24:38 AM 43.8417 -96.0719 65° Northeast 511 588 37,000  Level FlightAware ADS-B
Mon 05:25:08 AM 43.8722 -95.9828 65° Northeast 510 587 37,000  Level FlightAware ADS-B
Mon 05:25:39 AM 43.9028 -95.8931 65° Northeast 512 589 37,000  Level FlightAware ADS-B
Mon 05:26:09 AM 43.9334 -95.8030 65° Northeast 513 590 37,000  Level FlightAware ADS-B
Mon 05:26:39 AM 43.9639 -95.7138 65° Northeast 513 590 37,000  Level FlightAware ADS-B
Mon 05:27:11 AM 43.9962 -95.6196 64° Northeast 513 590 37,000 -774 Level FlightAware ADS-B
Mon 05:27:41 AM 44.0277 -95.5292 64° Northeast 509 586 36,200 -2,105 Descending FlightAware ADS-B
Mon 05:29:05 AM 44.1142 -95.2894 64° Northeast 510 587 33,000 -2,125 Descending Minneapolis Center
Mon 05:30:05 AM 44.1772 -95.1136 63° Northeast 510 587 31,100 -1,884 Descending Minneapolis Center
Mon 05:31:06 AM 44.2400 -94.9419 63° Northeast 502 578 29,200 -1,934 Descending Minneapolis Center
Mon 05:32:06 AM 44.3028 -94.7769 62° Northeast 488 562 27,200 -1,785 Descending Minneapolis Center
Mon 05:33:07 AM 44.3522 -94.6478 62° Northeast 478 550 25,600 -2,139 Descending Minneapolis Center
Mon 05:38:19 AM 44.6360 -93.8520 62° Northeast 381 438 13,900 -2,233 Descending FlightAware ADS-B
Mon 05:38:59 AM 44.6500 -93.7580 78° East 370 426 12,500 -1,975 Descending FlightAware ADS-B
Mon 05:39:38 AM 44.6630 -93.6760 77° East 357 411 11,300 -1,500 Descending FlightAware ADS-B
Mon 05:40:19 AM 44.6770 -93.5800 78° East 325 374 10,500 -1,185 Descending FlightAware ADS-B
Mon 05:40:59 AM 44.6890 -93.4980 78° East 304 350 9,700 -1,440 Descending FlightAware ADS-B
Mon 05:41:34 AM 44.6980 -93.4360 78° East 301 346 8,700 -1,556 Descending FlightAware ADS-B
Mon 05:41:53 AM 44.7020 -93.4040 80° East 301 346 8,300 -1,500 Descending FlightAware ADS-B
Mon 05:42:14 AM 44.7090 -93.3620 77° East 297 342 7,700 -1,696 Descending FlightAware ADS-B
Mon 05:42:39 AM 44.7150 -93.3170 79° East 295 339 7,000 -1,727 Descending FlightAware ADS-B
Mon 05:43:20 AM 44.7270 -93.2370 78° East 290 334 5,800 -1,612 Descending FlightAware ADS-B
Mon 05:43:46 AM 44.7340 -93.1870 79° East 290 334 5,200 -1,345 Descending FlightAware ADS-B
Mon 05:44:18 AM 44.7410 -93.1370 79° East 269 310 4,500 -738 Descending FlightAware ADS-B
Mon 05:44:51 AM 44.7480 -93.0860 79° East 263 303 4,400 -507 Descending FlightAware ADS-B
Mon 05:45:29 AM 44.7550 -93.0350 79° East 237 273 3,900 -808 Descending FlightAware ADS-B
Mon 05:45:43 AM 44.7660 -93.0140 54° Northeast 207 238 3,700 -286 Descending FlightAware ADS-B
Mon 05:46:11 AM 44.7800 -92.9890 52° Northeast 207 238 3,700 -512 Level FlightAware ADS-B
Mon 05:47:05 AM 44.8230 -93.0610 310° West 180 207 3,000 -512 Descending FlightAware ADS-B
Mon 05:47:33 AM 44.8340 -93.0840 304° West 180 207 3,000 -906 Level FlightAware ADS-B
Mon 05:47:58 AM 44.8440 -93.1090 299° West 131 151 2,200 -1,083 Descending FlightAware ADS-B
Mon 05:48:45 AM 44.8580 -93.1410 302° West 129 148 1,700 -400 Descending FlightAware ADS-B
Mon 05:49:13 AM 44.8660 -93.1590 302° West 129 148 1,700  Level FlightAware ADS-B

Login

Don't have an account? Register now (free) for customized features, flight alerts, and more!